createdAt,value
2022-10-31T06:02:46.422Z,96.70
2022-10-31T06:07:55.316Z,96.90
2022-10-31T06:12:59.671Z,96.70
2022-10-31T06:18:06.636Z,96.60
2022-10-31T06:23:10.635Z,96.90
2022-10-31T06:28:14.555Z,96.60
2022-10-31T06:33:19.895Z,96.80
2022-10-31T06:38:25.221Z,96.90
2022-10-31T06:43:28.747Z,97.10
2022-10-31T06:48:36.440Z,97.20
2022-10-31T06:53:44.722Z,97.30
2022-10-31T06:58:48.351Z,97.20
2022-10-31T07:03:54.258Z,97.30
2022-10-31T07:08:57.876Z,97.20
2022-10-31T07:14:03.419Z,97.40
2022-10-31T07:19:08.579Z,97.50
2022-10-31T07:24:12.169Z,97.60
2022-10-31T07:29:22.702Z,97.50
2022-10-31T07:34:28.322Z,97.60
2022-10-31T07:39:34.827Z,97.60
2022-10-31T07:44:38.593Z,97.60
2022-10-31T07:49:46.491Z,97.60
2022-10-31T07:54:58.185Z,97.50
2022-10-31T08:00:01.842Z,97.60
2022-10-31T08:05:07.958Z,97.60
2022-10-31T08:10:15.719Z,97.50
2022-10-31T08:15:19.234Z,97.20
2022-10-31T08:20:24.505Z,97.20
2022-10-31T08:25:33.734Z,97.20
2022-10-31T08:30:42.336Z,97.20
2022-10-31T08:35:51.780Z,97.30
2022-10-31T08:40:59.435Z,97.40
2022-10-31T08:46:03.934Z,97.40
2022-10-31T08:51:10.949Z,97.40
2022-10-31T08:56:14.654Z,97.40
2022-10-31T09:01:18.475Z,97.40
2022-10-31T09:06:23.669Z,97.40
2022-10-31T09:11:27.377Z,97.30
2022-10-31T09:16:33.632Z,97.30
2022-10-31T09:21:38.566Z,97.40
2022-10-31T09:26:42.200Z,97.50
2022-10-31T09:31:46.234Z,97.50
2022-10-31T09:36:51.227Z,97.50
2022-10-31T09:42:19.582Z,97.60
2022-10-31T09:47:33.912Z,97.80
2022-10-31T09:52:48.259Z,97.90
2022-10-31T09:57:54.999Z,97.90
2022-10-31T10:03:03.376Z,97.80
2022-10-31T10:08:14.128Z,97.90
2022-10-31T10:13:35.171Z,97.90
2022-10-31T10:18:47.520Z,97.60
2022-10-31T10:24:03.617Z,97.00
2022-10-31T10:29:23.622Z,96.80
2022-10-31T10:34:32.401Z,97.10
2022-10-31T10:39:44.155Z,96.90
2022-10-31T10:45:08.328Z,96.60
2022-10-31T10:50:16.859Z,96.20
2022-10-31T10:55:33.884Z,95.20
2022-10-31T11:00:41.205Z,94.40
2022-10-31T11:05:49.305Z,94.10
2022-10-31T11:11:01.133Z,94.40
2022-10-31T11:16:08.369Z,94.50
2022-10-31T11:21:23.504Z,94.30
2022-10-31T11:26:28.494Z,94.60
2022-10-31T11:31:33.885Z,94.60
2022-10-31T11:36:41.222Z,94.90
2022-10-31T11:41:47.484Z,95.00
2022-10-31T11:46:54.069Z,95.50
2022-10-31T11:52:00.097Z,95.60
2022-10-31T11:57:05.297Z,95.70
2022-10-31T12:02:21.018Z,95.60
2022-10-31T12:07:25.316Z,95.60
2022-10-31T12:12:54.521Z,95.70
2022-10-31T12:18:18.316Z,95.70
2022-10-31T12:23:30.952Z,95.50
2022-10-31T12:28:52.650Z,95.60
2022-10-31T12:34:12.970Z,95.90
2022-10-31T12:39:27.077Z,95.70
2022-10-31T12:44:59.777Z,95.60
2022-10-31T12:50:17.118Z,95.40
2022-10-31T12:55:39.116Z,95.10
2022-10-31T13:00:48.474Z,94.80
2022-10-31T13:05:57.161Z,94.80
2022-10-31T13:11:08.781Z,94.90
2022-10-31T13:16:17.296Z,95.00
2022-10-31T13:21:24.857Z,95.00
2022-10-31T13:26:39.009Z,95.10
2022-10-31T13:31:44.829Z,95.10
2022-10-31T13:36:55.594Z,95.10
2022-10-31T13:42:05.648Z,95.10
2022-10-31T13:47:26.103Z,95.20
2022-10-31T13:52:30.521Z,95.30
2022-10-31T13:57:37.206Z,95.10
2022-10-31T14:02:49.629Z,95.10
2022-10-31T14:07:54.575Z,95.20
2022-10-31T14:13:07.420Z,95.10
2022-10-31T14:18:34.215Z,95.20
2022-10-31T14:23:41.257Z,95.40
2022-10-31T14:28:45.110Z,95.40
2022-10-31T14:33:50.022Z,95.30
2022-10-31T14:38:59.771Z,95.10
2022-10-31T14:44:34.678Z,94.90
2022-10-31T14:49:53.167Z,94.70
2022-10-31T14:55:00.895Z,94.20
2022-10-31T15:00:07.910Z,93.80
2022-10-31T15:05:14.696Z,93.40
2022-10-31T15:10:23.873Z,92.40
2022-10-31T15:15:28.579Z,92.80
2022-10-31T15:20:40.628Z,94.20
2022-10-31T15:25:44.453Z,95.10
2022-10-31T15:30:58.640Z,95.40
2022-10-31T15:36:04.457Z,95.40
2022-10-31T15:41:25.260Z,95.40
2022-10-31T15:46:29.358Z,95.40
2022-10-31T15:51:38.325Z,95.40
2022-10-31T15:56:45.493Z,95.50
2022-10-31T16:02:03.147Z,95.50
2022-10-31T16:07:22.732Z,95.70
2022-10-31T16:12:36.719Z,95.80
2022-10-31T16:17:45.855Z,96.00
2022-10-31T16:22:53.663Z,96.20
2022-10-31T16:28:01.599Z,96.40
2022-10-31T16:33:05.425Z,96.60
2022-10-31T16:38:10.607Z,96.70
2022-10-31T16:43:17.983Z,96.80
2022-10-31T16:48:24.242Z,96.90
2022-10-31T16:53:29.238Z,96.90
2022-10-31T16:58:36.445Z,96.90
2022-10-31T17:03:40.050Z,96.90
2022-10-31T17:08:45.015Z,97.00
2022-10-31T17:13:48.759Z,97.10
2022-10-31T17:18:52.406Z,97.20
2022-10-31T17:23:57.727Z,97.30
2022-10-31T17:29:03.473Z,97.50
2022-10-31T17:34:08.699Z,97.30
2022-10-31T17:39:13.689Z,97.50
2022-10-31T17:44:17.233Z,97.70
2022-10-31T17:49:21.731Z,97.80
2022-10-31T17:54:26.572Z,97.90
2022-10-31T17:59:30.284Z,98.00
2022-10-31T18:04:33.848Z,97.90
2022-10-31T18:09:38.852Z,98.00
2022-10-31T18:14:47.285Z,98.20
2022-10-31T18:19:51.948Z,98.30
2022-10-31T18:25:01.618Z,98.30
2022-10-31T18:30:06.632Z,98.50
2022-10-31T18:35:10.002Z,98.60
2022-10-31T18:40:15.007Z,98.90
2022-10-31T18:45:32.485Z,99.00
2022-10-31T18:50:42.271Z,99.20
2022-10-31T18:55:49.203Z,99.30
2022-10-31T19:00:53.844Z,99.10
2022-10-31T19:05:57.806Z,98.90
2022-10-31T19:11:07.137Z,98.80
2022-10-31T19:16:12.906Z,98.70
2022-10-31T19:21:18.276Z,98.50
2022-10-31T19:26:23.553Z,98.50
2022-10-31T19:31:27.167Z,98.30
2022-10-31T19:36:30.802Z,98.20
2022-10-31T19:41:35.794Z,98.20
2022-10-31T19:46:59.735Z,98.10
2022-10-31T19:52:03.407Z,97.90
2022-10-31T19:57:08.334Z,97.80
2022-10-31T20:02:19.655Z,97.60
2022-10-31T20:07:23.254Z,97.50
2022-10-31T20:12:28.262Z,97.20
2022-10-31T20:17:31.929Z,97.20
2022-10-31T20:22:35.849Z,97.10
2022-10-31T20:27:40.874Z,97.00
2022-10-31T20:32:49.783Z,96.80
2022-10-31T20:37:53.648Z,96.70
2022-10-31T20:42:58.889Z,96.70
2022-10-31T20:48:03.102Z,96.70
2022-10-31T20:53:07.098Z,96.40
2022-10-31T20:58:12.035Z,96.10
2022-10-31T21:03:15.604Z,96.10
2022-10-31T21:08:19.294Z,96.00
2022-10-31T21:13:24.568Z,96.00
2022-10-31T21:18:28.161Z,96.00
2022-10-31T21:23:31.871Z,95.90
2022-10-31T21:28:38.102Z,95.70
2022-10-31T21:33:42.096Z,95.70
2022-10-31T21:38:45.686Z,95.60
2022-10-31T21:43:54.264Z,95.50
2022-10-31T21:48:58.944Z,95.50
2022-10-31T21:54:20.001Z,95.30
2022-10-31T21:59:24.903Z,95.20
2022-10-31T22:04:29.027Z,95.20
2022-10-31T22:09:32.593Z,95.00
2022-10-31T22:14:37.575Z,94.90
2022-10-31T22:19:41.321Z,94.90
2022-10-31T22:24:44.833Z,94.90
2022-10-31T22:29:54.122Z,94.90
2022-10-31T22:35:00.057Z,94.80
2022-10-31T22:40:03.659Z,94.80
2022-10-31T22:45:09.940Z,94.80
2022-10-31T22:50:13.552Z,94.80
2022-10-31T22:55:17.407Z,94.70
2022-10-31T23:00:22.825Z,94.70
2022-10-31T23:05:26.441Z,94.60
2022-10-31T23:10:33.354Z,94.60
2022-10-31T23:15:39.598Z,94.50
2022-10-31T23:20:43.130Z,94.40
2022-10-31T23:26:04.503Z,94.20
